Time;durP1;ratioP1;P1;durP2;ratioP2;P2;SDS_P1;SDS_P2;PMS_P1;PMS_P2;Temp;Humidity;BMP_temperature;BMP_pressure;BME280_temperature;BME280_humidity;BME280_pressure;Samples;Min_cycle;Max_cycle;Signal;HPM_P1;HPM_P2
2024/03/15 00:00:17;;;;;;;6.53;4.10;;;;;;;12.97;100.00;100606.75;5092673;28;20060;-69
2024/03/15 00:03:06;;;;;;;8.32;4.32;;;;;;;12.97;100.00;100601.28;5112837;28;20419;-68
2024/03/15 00:05:54;;;;;;;6.85;4.00;;;;;;;12.94;100.00;100599.13;5112661;28;20499;-68
2024/03/15 00:08:43;;;;;;;7.63;4.32;;;;;;;12.94;100.00;100607.31;5113481;28;20044;-69
2024/03/15 00:11:31;;;;;;;9.07;4.20;;;;;;;12.94;100.00;100601.84;5082575;28;20043;-68
2024/03/15 00:14:18;;;;;;;8.52;3.88;;;;;;;12.92;100.00;100606.81;5072150;28;20149;-69
2024/03/15 00:17:07;;;;;;;6.50;4.00;;;;;;;12.92;100.00;100593.16;5114059;28;20576;-69
2024/03/15 00:19:56;;;;;;;8.63;4.47;;;;;;;12.92;100.00;100595.88;5098388;28;20567;-68
2024/03/15 00:22:44;;;;;;;11.48;4.80;;;;;;;12.88;100.00;100592.91;5084043;28;20047;-68
2024/03/15 00:25:32;;;;;;;7.30;4.38;;;;;;;12.86;100.00;100595.09;5085166;28;20051;-68
2024/03/15 00:28:21;;;;;;;7.93;4.10;;;;;;;12.88;100.00;100592.09;5083466;28;20048;-67
2024/03/15 00:31:09;;;;;;;7.78;4.60;;;;;;;12.90;100.00;100587.16;5063649;28;20055;-68
2024/03/15 00:33:58;;;;;;;10.13;4.60;;;;;;;12.87;100.00;100598.63;5113450;28;20059;-68
2024/03/15 00:36:47;;;;;;;9.30;3.97;;;;;;;12.87;100.00;100602.22;5098040;28;20051;-68
2024/03/15 00:39:35;;;;;;;8.40;4.55;;;;;;;12.89;100.00;100589.06;5097031;28;20046;-68
2024/03/15 00:42:23;;;;;;;8.00;4.63;;;;;;;12.89;100.00;100585.50;5097731;28;20062;-68
2024/03/15 00:45:11;;;;;;;10.43;4.30;;;;;;;12.85;100.00;100579.00;5103821;28;20189;-69
2024/03/15 00:48:01;;;;;;;10.40;4.85;;;;;;;12.88;100.00;100579.22;5065152;28;20044;-68
2024/03/15 00:50:50;;;;;;;7.95;4.40;;;;;;;12.85;100.00;100576.28;5093468;28;20101;-68
2024/03/15 00:53:38;;;;;;;9.35;4.55;;;;;;;12.85;100.00;100576.28;5096414;28;20063;-68
2024/03/15 00:56:26;;;;;;;7.47;4.20;;;;;;;12.82;100.00;100576.81;5069674;28;20416;-69
2024/03/15 00:59:15;;;;;;;8.80;4.35;;;;;;;12.82;100.00;100580.41;5113007;28;20436;-67
2024/03/15 01:02:04;;;;;;;10.73;4.53;;;;;;;12.82;100.00;100593.22;5111938;28;20064;-70
2024/03/15 01:04:52;;;;;;;10.65;4.80;;;;;;;12.85;100.00;100579.00;5098077;28;20055;-69
2024/03/15 01:07:40;;;;;;;9.88;4.80;;;;;;;12.83;100.00;100578.47;5092343;28;20420;-68
2024/03/15 01:10:31;;;;;;;9.55;4.60;;;;;;;12.82;100.00;100571.34;5098828;28;20510;-68
2024/03/15 01:13:19;;;;;;;8.32;4.55;;;;;;;12.83;100.00;100571.06;5112093;28;20055;-69
2024/03/15 01:16:09;;;;;;;9.10;4.53;;;;;;;12.81;100.00;100569.75;5098185;28;20439;-68
2024/03/15 01:18:57;;;;;;;14.18;5.13;;;;;;;12.83;100.00;100562.06;5112237;28;20079;-68
2024/03/15 01:21:45;;;;;;;10.70;4.90;;;;;;;12.83;100.00;100559.34;5096349;28;20126;-69
2024/03/15 01:24:33;;;;;;;7.15;4.25;;;;;;;12.82;100.00;100572.19;5111354;28;20131;-67
2024/03/15 01:27:22;;;;;;;7.47;3.97;;;;;;;12.83;100.00;100562.06;5063209;28;20431;-68
2024/03/15 01:30:10;;;;;;;8.95;4.78;;;;;;;12.85;100.00;100562.59;5092723;28;20044;-69
2024/03/15 01:32:58;;;;;;;7.93;4.57;;;;;;;12.85;100.00;100555.19;5077843;28;20127;-68
2024/03/15 01:35:47;;;;;;;8.05;4.03;;;;;;;12.85;100.00;100555.19;5111419;28;20157;-68
2024/03/15 01:38:35;;;;;;;8.98;4.40;;;;;;;12.86;100.00;100550.53;5093043;28;20047;-68
2024/03/15 01:41:23;;;;;;;9.57;4.60;;;;;;;12.88;100.00;100548.34;5097192;28;20126;-68
2024/03/15 01:44:11;;;;;;;9.15;4.40;;;;;;;12.87;100.00;100547.53;5112784;28;20050;-68
2024/03/15 01:46:59;;;;;;;9.13;4.38;;;;;;;12.86;100.00;100540.41;5111938;28;20043;-69
2024/03/15 01:49:53;;;;;;;9.32;4.63;;;;;;;12.87;100.00;100543.94;5082144;28;20050;-68
2024/03/15 01:52:41;;;;;;;9.90;4.05;;;;;;;12.87;100.00;100544.78;5094903;28;20075;-69
2024/03/15 01:55:32;;;;;;;8.85;4.18;;;;;;;12.88;100.00;100540.13;5065101;28;20177;-68
2024/03/15 01:58:22;;;;;;;7.68;4.32;;;;;;;12.87;100.00;100533.84;5091830;28;20048;-68
2024/03/15 02:01:11;;;;;;;9.82;4.28;;;;;;;12.87;100.00;100536.59;5092360;28;20044;-68
2024/03/15 02:04:00;;;;;;;11.52;4.40;;;;;;;12.87;100.00;100533.03;5077534;28;20130;-67
2024/03/15 02:06:48;;;;;;;9.05;4.45;;;;;;;12.88;100.00;100534.66;5091231;28;20047;-68
2024/03/15 02:09:36;;;;;;;8.18;4.40;;;;;;;12.87;100.00;100543.94;5095744;28;20035;-68
2024/03/15 02:12:27;;;;;;;7.93;4.38;;;;;;;12.87;100.00;100546.69;5077085;28;20048;-68
2024/03/15 02:15:15;;;;;;;8.55;4.28;;;;;;;12.87;100.00;100542.06;5076408;28;20052;-68
2024/03/15 02:18:03;;;;;;;10.25;4.60;;;;;;;12.86;100.00;100542.34;5093073;28;20064;-68
2024/03/15 02:20:52;;;;;;;8.20;4.60;;;;;;;12.86;100.00;100539.59;5087011;28;20057;-68
2024/03/15 02:23:40;;;;;;;10.88;4.50;;;;;;;12.87;100.00;100546.69;5069776;28;20243;-68
2024/03/15 02:26:28;;;;;;;8.27;4.30;;;;;;;12.84;100.00;100542.63;5082178;28;20054;-67
2024/03/15 02:29:16;;;;;;;9.63;4.38;;;;;;;12.85;100.00;100548.91;5097578;28;20180;-68
2024/03/15 02:32:06;;;;;;;8.85;4.30;;;;;;;12.83;100.00;100543.72;5096378;28;20551;-69
2024/03/15 02:34:54;;;;;;;10.27;4.28;;;;;;;12.83;100.00;100537.47;5111194;28;20054;-68
2024/03/15 02:37:42;;;;;;;7.93;4.30;;;;;;;12.83;100.00;100541.00;5081615;28;20044;-68
2024/03/15 02:40:30;;;;;;;7.93;4.50;;;;;;;12.83;100.00;100540.19;5108560;28;20039;-67
2024/03/15 02:43:18;;;;;;;9.15;4.63;;;;;;;12.82;100.00;100547.59;5106500;28;20383;-68
2024/03/15 02:46:06;;;;;;;7.75;4.50;;;;;;;12.82;100.00;100544.00;5068235;28;20145;-68
2024/03/15 02:48:54;;;;;;;9.07;4.32;;;;;;;12.81;100.00;100539.66;5096689;28;20044;-68
2024/03/15 02:51:42;;;;;;;9.18;4.50;;;;;;;12.82;100.00;100544.00;5068186;28;20043;-68
2024/03/15 02:54:31;;;;;;;8.20;3.83;;;;;;;12.82;100.00;100533.91;5095751;28;20044;-69
2024/03/15 02:57:19;;;;;;;8.95;4.50;;;;;;;12.82;100.00;100539.38;5063427;28;20412;-68
2024/03/15 03:00:10;;;;;;;11.57;4.47;;;;;;;12.82;100.00;100538.53;5069233;28;20172;-69
2024/03/15 03:02:58;;;;;;;18.85;4.15;;;;;;;12.82;100.00;100544.84;5043484;28;20132;-69
2024/03/15 03:05:46;;;;;;;7.88;4.28;;;;;;;12.84;100.00;100544.53;5060410;28;20408;-68
2024/03/15 03:08:35;;;;;;;6.72;3.90;;;;;;;12.82;100.00;100542.13;5062649;28;20427;-69
2024/03/15 03:11:23;;;;;;;7.40;4.25;;;;;;;12.82;100.00;100541.28;5077064;28;20048;-68
2024/03/15 03:14:13;;;;;;;9.15;3.95;;;;;;;12.84;100.00;100547.28;5059809;28;20040;-68
2024/03/15 03:17:02;;;;;;;7.47;4.15;;;;;;;12.83;100.00;100548.41;5067208;28;20150;-67
2024/03/15 03:19:50;;;;;;;9.15;4.28;;;;;;;12.83;100.00;100548.41;5060706;28;20135;-67
2024/03/15 03:22:38;;;;;;;8.43;3.90;;;;;;;12.83;100.00;100556.59;5075329;28;20471;-68
2024/03/15 03:25:27;;;;;;;7.72;4.00;;;;;;;12.83;100.00;100551.13;5056055;28;20051;-68
2024/03/15 03:28:16;;;;;;;8.50;4.35;;;;;;;12.82;100.00;100552.22;5080401;28;20603;-68
2024/03/15 03:31:05;;;;;;;8.63;3.95;;;;;;;12.79;100.00;100551.72;5094036;28;20048;-68
2024/03/15 03:33:54;;;;;;;8.40;4.22;;;;;;;12.81;100.00;100550.59;5080688;28;20047;-68
2024/03/15 03:36:42;;;;;;;8.65;4.30;;;;;;;12.79;100.00;100548.16;5076725;28;20145;-68
2024/03/15 03:39:30;;;;;;;9.80;4.07;;;;;;;12.79;100.00;100557.19;5053891;28;20036;-68
2024/03/15 03:42:20;;;;;;;10.90;4.43;;;;;;;12.79;100.00;100553.59;5080027;28;20344;-68
2024/03/15 03:45:15;;;;;;;10.93;4.07;;;;;;;12.78;100.00;100555.53;5066879;28;20083;-68
2024/03/15 03:48:04;;;;;;;10.65;3.72;;;;;;;12.78;100.00;100552.81;5087424;28;20048;-68
2024/03/15 03:50:52;;;;;;;6.65;4.00;;;;;;;12.77;100.00;100559.38;5078307;28;20477;-68
2024/03/15 03:53:40;;;;;;;9.73;3.95;;;;;;;12.77;100.00;100558.56;5072485;28;20047;-68
2024/03/15 03:56:29;;;;;;;6.35;3.72;;;;;;;12.76;100.00;100557.75;5092706;28;21752;-68
2024/03/15 03:59:17;;;;;;;8.82;4.05;;;;;;;12.75;100.00;100564.31;5038168;28;20055;-68
2024/03/15 04:02:05;;;;;;;8.88;4.20;;;;;;;12.75;100.00;100558.06;5068544;28;20075;-68
2024/03/15 04:04:54;;;;;;;8.80;4.00;;;;;;;12.75;100.00;100561.59;5058456;28;20040;-68
2024/03/15 04:07:48;;;;;;;7.30;3.80;;;;;;;12.75;100.00;100563.50;5097666;28;20043;-69
2024/03/15 04:10:36;;;;;;;8.60;4.15;;;;;;;12.74;100.00;100564.59;5077508;28;20122;-69
2024/03/15 04:13:24;;;;;;;9.07;4.05;;;;;;;12.74;100.00;100565.41;5059254;28;20078;-68
2024/03/15 04:16:12;;;;;;;7.63;4.00;;;;;;;12.74;100.00;100568.16;5058712;28;20044;-69
2024/03/15 04:19:03;;;;;;;6.90;3.97;;;;;;;12.74;100.00;100570.88;5057127;28;20037;-68
2024/03/15 04:21:51;;;;;;;7.80;4.35;;;;;;;12.73;100.00;100573.91;5067542;28;20052;-68
2024/03/15 04:24:41;;;;;;;8.27;4.25;;;;;;;12.73;100.00;100572.00;5093572;28;20056;-68
2024/03/15 04:27:29;;;;;;;7.88;3.83;;;;;;;12.73;100.00;100569.25;5056089;28;20131;-68
2024/03/15 04:30:18;;;;;;;8.80;4.07;;;;;;;12.73;100.00;100569.25;5059276;28;20044;-68
2024/03/15 04:33:06;;;;;;;7.20;3.88;;;;;;;12.73;100.00;100563.78;5058200;28;20055;-68
2024/03/15 04:35:55;;;;;;;6.95;3.85;;;;;;;12.72;100.00;100564.06;5061149;28;20045;-69
2024/03/15 04:38:43;;;;;;;9.07;4.22;;;;;;;12.72;100.00;100562.19;5093324;28;20050;-68
2024/03/15 04:41:31;;;;;;;9.95;4.30;;;;;;;12.73;100.00;100562.97;5095340;28;20044;-68
2024/03/15 04:44:21;;;;;;;8.77;4.07;;;;;;;12.73;100.00;100558.31;5091097;28;20415;-68
2024/03/15 04:47:09;;;;;;;9.27;4.45;;;;;;;12.74;100.00;100550.94;5061880;28;20054;-68
2024/03/15 04:49:57;;;;;;;10.38;4.35;;;;;;;12.74;100.00;100551.75;5063718;28;20157;-68
2024/03/15 04:52:50;;;;;;;6.15;3.30;;;;;;;12.75;100.00;100556.13;5092705;28;20054;-68
2024/03/15 04:55:39;;;;;;;10.25;3.55;;;;;;;12.75;100.00;100550.66;5096657;28;20481;-69
2024/03/15 04:58:30;;;;;;;7.88;3.55;;;;;;;12.75;100.00;100556.13;5097422;28;20188;-68
2024/03/15 05:01:18;;;;;;;8.00;3.80;;;;;;;12.76;100.00;100557.75;5083606;28;20054;-68
2024/03/15 05:04:06;;;;;;;8.13;4.15;;;;;;;12.76;100.00;100556.94;5070795;28;20050;-68
2024/03/15 05:06:54;;;;;;;8.65;3.60;;;;;;;12.76;100.00;100559.66;5070120;28;20047;-68
2024/03/15 05:09:42;;;;;;;10.07;4.07;;;;;;;12.76;100.00;100557.75;5083913;28;20451;-69
2024/03/15 05:12:30;;;;;;;9.02;4.30;;;;;;;12.76;100.00;100551.47;5109493;27;20411;-68
2024/03/15 05:15:19;;;;;;;7.30;3.90;;;;;;;12.76;100.00;100551.47;5083880;28;20467;-69
2024/03/15 05:18:07;;;;;;;7.90;4.22;;;;;;;12.75;100.00;100550.66;5098603;28;20132;-69
2024/03/15 05:20:55;;;;;;;8.40;4.00;;;;;;;12.75;100.00;100550.66;5096899;28;20447;-69
2024/03/15 05:23:43;;;;;;;7.80;3.85;;;;;;;12.76;100.00;100562.41;5112988;27;20036;-69
2024/03/15 05:26:35;;;;;;;6.88;3.90;;;;;;;12.77;100.00;100555.81;5111976;28;20077;-69
2024/03/15 05:29:23;;;;;;;8.07;4.00;;;;;;;12.75;100.00;100556.13;5112927;28;20061;-69
2024/03/15 05:32:11;;;;;;;7.07;3.65;;;;;;;12.76;100.00;100556.94;5096156;28;20050;-68
2024/03/15 05:35:00;;;;;;;8.77;3.72;;;;;;;12.79;100.00;100567.28;5112986;28;20051;-68
2024/03/15 05:37:48;;;;;;;7.95;3.90;;;;;;;12.76;100.00;100563.22;5097763;28;20581;-68
2024/03/15 05:40:36;;;;;;;11.50;4.07;;;;;;;12.77;100.00;100564.00;5109934;28;20496;-69
2024/03/15 05:43:24;;;;;;;6.32;3.25;;;;;;;12.78;100.00;100562.94;5083564;28;20107;-69
2024/03/15 05:46:13;;;;;;;5.65;3.03;;;;;;;12.78;100.00;100565.66;5111358;28;20051;-69
2024/03/15 05:49:01;;;;;;;8.07;3.92;;;;;;;12.76;100.00;100563.22;5098127;28;20508;-68
2024/03/15 05:51:49;;;;;;;7.45;3.53;;;;;;;12.76;100.00;100563.22;5082465;28;20055;-69
2024/03/15 05:54:38;;;;;;;7.15;3.55;;;;;;;12.77;100.00;100569.47;5115391;27;20047;-68
2024/03/15 05:57:28;;;;;;;8.10;3.67;;;;;;;12.76;100.00;100568.69;5132799;27;20050;-69
2024/03/15 06:00:19;;;;;;;7.90;3.72;;;;;;;12.75;100.00;100567.06;5117795;27;20111;-69
2024/03/15 06:03:11;;;;;;;7.72;3.42;;;;;;;12.74;100.00;100570.06;5064689;28;20044;-69
2024/03/15 06:05:59;;;;;;;7.57;4.25;;;;;;;12.74;100.00;100570.88;5077087;28;20122;-68
2024/03/15 06:08:48;;;;;;;8.23;4.05;;;;;;;12.74;100.00;100584.56;5076156;28;20114;-68
2024/03/15 06:11:37;;;;;;;13.98;4.75;;;;;;;12.71;100.00;100582.41;5107172;28;20040;-69
2024/03/15 06:14:25;;;;;;;10.48;4.80;;;;;;;12.66;100.00;100590.66;5083966;28;20047;-68
2024/03/15 06:17:14;;;;;;;10.23;4.43;;;;;;;12.63;100.00;100582.19;5083097;28;20039;-69
2024/03/15 06:20:03;;;;;;;9.85;4.30;;;;;;;12.60;100.00;100580.84;5067581;28;20374;-67
2024/03/15 06:22:51;;;;;;;10.98;4.35;;;;;;;12.66;100.00;100579.72;5090400;28;20395;-69
2024/03/15 06:25:40;;;;;;;9.10;4.03;;;;;;;12.67;100.00;100586.00;5082717;28;20177;-69
2024/03/15 06:28:28;;;;;;;5.78;3.33;;;;;;;12.69;100.00;100589.25;5084827;28;20152;-69
2024/03/15 06:31:17;;;;;;;9.15;4.00;;;;;;;12.70;100.00;100593.59;5097325;28;20122;-70
2024/03/15 06:34:08;;;;;;;7.85;3.72;;;;;;;12.70;100.00;100591.72;5094612;28;20485;-70
2024/03/15 06:36:58;;;;;;;9.18;3.75;;;;;;;12.71;100.00;100585.13;5098038;28;20446;-70
2024/03/15 06:43:13;;;;;;;8.45;4.43;;;;;;;12.62;100.00;100584.13;5098399;28;20032;-69
2024/03/15 06:46:08;;;;;;;10.63;4.10;;;;;;;12.61;100.00;100571.56;5096856;28;20096;-68
2024/03/15 06:48:57;;;;;;;8.70;4.13;;;;;;;12.61;100.00;100581.69;5084382;28;20502;-69
2024/03/15 06:54:53;;;;;;;9.55;3.75;;;;;;;12.66;100.00;100601.59;5095631;28;20564;-68
2024/03/15 06:57:43;;;;;;;7.45;3.20;;;;;;;12.69;100.00;100598.28;5070984;28;20399;-70
2024/03/15 07:00:34;;;;;;;9.57;3.42;;;;;;;12.72;100.00;100594.13;5083853;28;20047;-69
2024/03/15 07:03:23;;;;;;;7.82;3.30;;;;;;;12.75;100.00;100599.06;5069722;28;20044;-69
2024/03/15 07:06:11;;;;;;;5.80;3.20;;;;;;;12.77;100.00;100603.13;5096884;28;20097;-69
2024/03/15 07:08:59;;;;;;;7.95;3.58;;;;;;;12.81;100.00;100614.28;5112181;28;20104;-69
2024/03/15 07:11:47;;;;;;;7.45;3.20;;;;;;;12.83;100.00;100616.75;5073008;28;20139;-69
2024/03/15 07:14:39;;;;;;;6.25;3.42;;;;;;;12.85;100.00;100620.00;5114238;28;20040;-68
2024/03/15 07:17:33;;;;;;;8.40;3.50;;;;;;;12.88;100.00;100613.97;5096680;28;20514;-70
2024/03/15 07:20:22;;;;;;;8.60;3.58;;;;;;;12.85;100.00;100604.41;5105538;28;20039;-69
2024/03/15 07:23:11;;;;;;;7.50;3.42;;;;;;;12.88;100.00;100614.78;5096501;28;20056;-70
2024/03/15 07:25:59;;;;;;;7.55;3.13;;;;;;;12.90;100.00;100615.31;5096805;28;20146;-69
2024/03/15 07:28:47;;;;;;;8.45;3.90;;;;;;;12.89;100.00;100621.03;4369778;28;10000224;-69
2024/03/15 07:31:35;;;;;;;6.70;2.75;;;;;;;12.95;100.00;100619.91;5091672;28;20054;-70
2024/03/15 07:34:24;;;;;;;3.25;2.20;;;;;;;13.05;100.00;100614.31;5091173;28;20555;-70
2024/03/15 07:37:12;;;;;;;7.95;3.00;;;;;;;13.02;100.00;100616.84;5107143;28;20495;-70
2024/03/15 07:40:01;;;;;;;9.98;3.17;;;;;;;12.99;100.00;100626.44;5077486;28;20050;-70
2024/03/15 07:42:49;;;;;;;7.47;3.35;;;;;;;12.97;100.00;100618.50;5110535;28;20323;-70
2024/03/15 07:45:38;;;;;;;6.70;2.80;;;;;;;13.04;100.00;100623.66;5084979;28;20043;-69
2024/03/15 07:48:27;;;;;;;7.18;2.80;;;;;;;13.05;100.00;100627.19;5098372;28;20047;-69
2024/03/15 07:51:15;;;;;;;8.13;3.25;;;;;;;13.07;100.00;100628.53;5097632;28;20039;-69
2024/03/15 07:54:04;;;;;;;6.68;3.20;;;;;;;13.03;100.00;100623.94;5084647;28;20064;-69
2024/03/15 07:56:55;;;;;;;9.00;3.30;;;;;;;13.02;100.00;100631.31;5087412;28;20048;-70
2024/03/15 07:59:43;;;;;;;7.20;3.15;;;;;;;13.06;100.00;100628.81;5040460;28;20048;-70
2024/03/15 08:02:31;;;;;;;6.43;3.10;;;;;;;13.07;100.00;100622.25;5071570;28;20073;-70
2024/03/15 08:05:22;;;;;;;7.22;3.25;;;;;;;13.07;100.00;100634.00;5073246;28;20044;-69
2024/03/15 08:08:10;;;;;;;7.65;3.35;;;;;;;13.17;100.00;100627.59;5089500;28;20062;-69
2024/03/15 08:11:00;;;;;;;10.10;3.67;;;;;;;13.18;100.00;100637.44;5074070;28;20044;-69
2024/03/15 08:13:52;;;;;;;12.63;3.72;;;;;;;13.18;100.00;100634.69;5090873;28;20169;-69
2024/03/15 08:16:41;;;;;;;12.15;3.50;;;;;;;13.20;100.00;100630.59;5077692;28;20124;-70
2024/03/15 08:19:31;;;;;;;7.05;3.38;;;;;;;13.18;100.00;100630.06;5052398;28;20044;-70
2024/03/15 08:22:20;;;;;;;9.82;3.92;;;;;;;13.18;100.00;100632.78;5065841;28;20043;-70
2024/03/15 08:25:09;;;;;;;7.75;3.20;;;;;;;13.20;100.00;100633.34;5091698;28;20066;-70
2024/03/15 08:27:58;;;;;;;8.90;3.60;;;;;;;13.29;100.00;100640.91;5038436;28;20127;-69
2024/03/15 08:30:47;;;;;;;10.73;3.17;;;;;;;13.26;100.00;100641.47;5036501;28;20552;-71
2024/03/15 08:33:36;;;;;;;6.97;3.00;;;;;;;13.21;100.00;100640.41;5061007;28;20055;-69
2024/03/15 08:36:24;;;;;;;10.63;3.90;;;;;;;13.26;100.00;100641.47;5077968;28;20048;-69
2024/03/15 08:39:15;;;;;;;9.52;3.58;;;;;;;13.28;100.00;100651.06;5072965;28;20040;-69
2024/03/15 08:42:04;;;;;;;9.10;3.50;;;;;;;13.26;100.00;100644.22;5068858;28;20048;-70
2024/03/15 08:44:53;;;;;;;9.48;3.22;;;;;;;13.20;100.00;100644.28;5073164;28;20046;-69
2024/03/15 08:47:41;;;;;;;8.60;3.53;;;;;;;13.19;100.00;100650.03;5031541;28;20048;-70
2024/03/15 08:50:48;;;;;;;7.05;2.97;;;;;;;13.16;100.00;100648.69;5057516;28;20047;-70
2024/03/15 08:53:36;;;;;;;7.75;2.63;;;;;;;13.17;100.00;100655.78;5094715;28;20082;-70
2024/03/15 08:56:26;;;;;;;11.20;2.90;;;;;;;13.19;100.00;100659.03;5082916;28;20039;-70
2024/03/15 08:59:14;;;;;;;7.50;3.25;;;;;;;13.21;100.00;100650.56;5084129;28;20059;-70
2024/03/15 09:02:04;;;;;;;10.77;3.30;;;;;;;13.20;100.00;100654.38;5093594;28;20059;-70
2024/03/15 09:04:52;;;;;;;8.00;2.75;;;;;;;13.19;100.00;100663.69;5081501;28;20051;-69
2024/03/15 09:07:41;;;;;;;6.40;2.78;;;;;;;13.17;100.00;100660.44;5050958;28;20044;-69
2024/03/15 09:10:29;;;;;;;7.75;2.88;;;;;;;13.20;100.00;100668.06;5063526;28;20131;-69
2024/03/15 09:13:19;;;;;;;10.45;3.17;;;;;;;13.20;100.00;100663.44;5112232;28;20050;-70
2024/03/15 09:16:07;;;;;;;11.43;3.45;;;;;;;13.26;100.00;100677.03;5111179;28;20122;-70
2024/03/15 09:18:59;;;;;;;10.38;3.08;;;;;;;13.27;100.00;100665.81;5100036;28;20055;-69
2024/03/15 09:21:48;;;;;;;4.60;2.45;;;;;;;13.20;100.00;100671.63;5071806;28;20043;-70
2024/03/15 09:24:37;;;;;;;7.32;2.80;;;;;;;13.17;100.00;100676.84;5069544;28;20051;-71
2024/03/15 09:27:25;;;;;;;9.27;3.05;;;;;;;13.24;100.00;100671.03;5078394;28;20408;-70
2024/03/15 09:30:16;;;;;;;8.30;2.72;;;;;;;13.25;100.00;100678.13;5087774;28;20394;-70
2024/03/15 09:33:04;;;;;;;11.82;2.70;;;;;;;13.32;100.00;100682.19;5114359;28;20048;-71
2024/03/15 09:35:53;;;;;;;7.50;2.80;;;;;;;13.27;100.00;100682.25;5083480;28;20042;-70
2024/03/15 09:38:41;;;;;;;8.52;2.70;;;;;;;13.27;100.00;100682.25;5098449;28;20058;-70
2024/03/15 09:41:31;;;;;;;8.00;2.80;;;;;;;13.29;100.00;100679.22;5097668;28;20052;-70
2024/03/15 09:44:19;;;;;;;8.30;2.97;;;;;;;13.28;100.00;100674.88;5098280;28;20119;-70
2024/03/15 09:47:10;;;;;;;9.13;2.90;;;;;;;13.27;100.00;100671.28;5113256;28;20066;-70
2024/03/15 09:49:59;;;;;;;8.30;3.15;;;;;;;13.26;100.00;100668.84;5097298;28;20105;-71
2024/03/15 09:52:47;;;;;;;7.10;2.70;;;;;;;13.27;100.00;100664.97;5082954;28;20043;-70
2024/03/15 09:55:35;;;;;;;6.97;2.50;;;;;;;13.26;100.00;100669.66;5044953;28;20063;-70
2024/03/15 09:58:24;;;;;;;8.30;2.63;;;;;;;13.28;100.00;100672.13;5082937;28;20514;-70
2024/03/15 10:01:13;;;;;;;7.65;2.90;;;;;;;13.35;100.00;100667.94;5097091;28;20402;-70
2024/03/15 10:04:02;;;;;;;10.60;3.22;;;;;;;13.47;100.00;100674.91;5083192;28;20083;-69
2024/03/15 10:06:50;;;;;;;9.88;3.00;;;;;;;13.49;100.00;100676.25;5084312;28;20047;-70
2024/03/15 10:09:40;;;;;;;6.00;2.88;;;;;;;13.52;100.00;100678.44;5108598;27;20480;-69
2024/03/15 10:12:29;;;;;;;8.90;3.35;;;;;;;13.62;100.00;100672.81;5084248;28;20444;-70
2024/03/15 10:15:21;;;;;;;14.73;3.28;;;;;;;13.67;100.00;100671.94;5068915;28;20048;-70
2024/03/15 10:18:10;;;;;;;10.52;3.25;;;;;;;13.73;100.00;100680.91;5056934;28;20052;-69
2024/03/15 10:20:59;;;;;;;8.45;2.80;;;;;;;13.74;100.00;100674.34;5077909;28;20116;-69
2024/03/15 10:23:47;;;;;;;13.15;3.50;;;;;;;13.72;100.00;100671.88;5104111;28;20055;-69
2024/03/15 10:26:43;;;;;;;8.57;2.97;;;;;;;13.72;100.00;100673.81;5079334;28;20061;-69
2024/03/15 10:29:32;;;;;;;11.60;2.92;;;;;;;13.73;100.00;100673.50;5067757;28;20052;-70
2024/03/15 10:32:20;;;;;;;12.05;3.33;;;;;;;13.76;100.00;100674.88;5097506;28;20130;-69
2024/03/15 10:35:21;;;;;;;10.48;3.25;;;;;;;13.80;100.00;100665.75;5055216;28;20125;-70
2024/03/15 10:38:14;;;;;;;10.55;3.33;;;;;;;13.80;100.00;100679.44;5097721;28;20492;-70
2024/03/15 10:41:02;;;;;;;12.40;3.33;;;;;;;13.83;100.00;100678.06;5083844;28;20051;-70
2024/03/15 10:43:52;;;;;;;8.35;3.03;;;;;;;13.87;100.00;100679.09;5084880;28;20043;-69
2024/03/15 10:46:41;;;;;;;9.52;3.13;;;;;;;13.88;100.00;100675.25;5076592;28;20039;-69
2024/03/15 10:49:29;;;;;;;10.75;3.15;;;;;;;13.87;100.00;100670.88;5077935;28;20419;-70
2024/03/15 10:52:18;;;;;;;7.50;2.63;;;;;;;13.90;100.00;100674.94;5077704;28;20063;-70
2024/03/15 10:55:23;;;;;;;9.30;2.78;;;;;;;13.89;100.00;100665.13;5076829;28;20412;-70
2024/03/15 10:58:12;;;;;;;8.70;2.85;;;;;;;13.91;100.00;100674.66;5093808;28;20071;-70
2024/03/15 11:01:03;;;;;;;9.27;2.90;;;;;;;13.93;100.00;100666.97;5092384;28;20132;-71
2024/03/15 11:03:51;;;;;;;9.25;2.83;;;;;;;13.92;100.00;100665.31;5038279;28;20393;-70
2024/03/15 11:06:45;;;;;;;8.48;3.35;;;;;;;13.94;100.00;100657.63;5093292;28;20071;-70
2024/03/15 11:09:39;;;;;;;7.80;3.10;;;;;;;13.93;100.00;100661.50;5087355;28;20051;-70
2024/03/15 11:12:38;;;;;;;10.18;2.90;;;;;;;14.02;100.00;100670.69;5113277;28;20048;-70
2024/03/15 11:15:36;;;;;;;8.77;2.78;;;;;;;13.98;100.00;100680.59;5112358;28;20474;-71
2024/03/15 11:18:37;;;;;;;8.15;2.60;;;;;;;13.87;100.00;100679.09;5059931;28;20129;-69
2024/03/15 11:21:26;;;;;;;13.13;3.28;;;;;;;13.79;100.00;100677.00;5040343;28;20043;-68
2024/03/15 11:24:15;;;;;;;7.32;2.78;;;;;;;13.70;100.00;100690.53;5069766;28;20476;-69
2024/03/15 11:27:03;;;;;;;10.98;2.80;;;;;;;13.58;100.00;100688.19;5060833;28;20139;-69
2024/03/15 11:29:56;;;;;;;8.38;2.95;;;;;;;13.49;100.00;100683.66;5096199;28;20392;-68
2024/03/15 11:32:44;;;;;;;8.15;2.80;;;;;;;13.42;100.00;100689.47;5068167;28;20109;-68
2024/03/15 11:35:33;;;;;;;9.32;2.90;;;;;;;13.34;100.00;100690.13;5079327;28;20052;-67
2024/03/15 11:38:22;;;;;;;12.00;3.40;;;;;;;13.27;100.00;100681.41;5091778;28;20500;-67
2024/03/15 11:41:10;;;;;;;9.15;3.03;;;;;;;13.21;100.00;100691.59;5113176;28;21208;-67
2024/03/15 11:44:03;;;;;;;11.07;3.17;;;;;;;13.15;100.00;100696.28;5100021;28;20051;-68
2024/03/15 11:46:51;;;;;;;7.38;2.80;;;;;;;13.10;100.00;100682.66;5099632;28;20039;-69
2024/03/15 11:49:39;;;;;;;10.02;3.30;;;;;;;13.06;100.00;100687.09;5098748;28;20096;-68
2024/03/15 11:52:27;;;;;;;8.40;2.80;;;;;;;13.08;100.00;100684.03;5098128;28;20112;-68
2024/03/15 11:55:17;;;;;;;7.03;2.72;;;;;;;13.14;100.00;100694.66;5070668;28;20051;-68
2024/03/15 11:58:08;;;;;;;6.43;2.80;;;;;;;13.18;100.00;100683.94;5083496;28;20419;-68
2024/03/15 12:00:57;;;;;;;6.72;2.72;;;;;;;13.25;100.00;100678.94;5099882;28;20039;-67
2024/03/15 12:03:45;;;;;;;9.93;2.80;;;;;;;13.30;100.00;100668.00;5099122;28;20043;-68
2024/03/15 12:06:36;;;;;;;8.90;2.83;;;;;;;13.35;100.00;100664.41;5081526;28;20047;-68
2024/03/15 12:09:25;;;;;;;8.75;3.03;;;;;;;13.42;100.00;100656.63;5085260;28;20044;-67
2024/03/15 12:12:13;;;;;;;9.88;2.53;;;;;;;13.52;100.00;100651.06;5066017;28;20395;-68
2024/03/15 12:15:01;;;;;;;8.38;2.75;;;;;;;13.60;100.00;100658.63;5067064;28;20044;-67
2024/03/15 12:17:49;;;;;;;50.33;23.90;;;;;;;13.65;100.00;100657.75;5095252;28;20044;-71
2024/03/15 12:20:38;;;;;;;12.60;4.43;;;;;;;13.70;100.00;100645.91;5079385;28;20143;-68
2024/03/15 12:23:25;;;;;;;11.48;3.30;;;;;;;13.70;100.00;100641.25;5094172;28;20127;-67
2024/03/15 12:26:13;;;;;;;10.07;3.38;;;;;;;13.71;100.00;100642.06;5105431;28;20501;-68
2024/03/15 12:29:02;;;;;;;6.80;2.95;;;;;;;13.70;100.00;100640.44;5093677;28;20044;-68
2024/03/15 12:31:50;;;;;;;7.65;3.00;;;;;;;13.68;100.00;100642.66;5092922;28;20040;-67
2024/03/15 12:34:38;;;;;;;7.68;3.10;;;;;;;13.69;100.00;100641.56;5093324;28;20054;-69
2024/03/15 12:37:27;;;;;;;11.30;4.10;;;;;;;13.77;100.00;100641.69;5111979;28;20142;-68
2024/03/15 12:40:22;;;;;;;14.20;5.68;;;;;;;13.84;100.00;100630.38;5098486;28;20055;-68
2024/03/15 12:43:10;;;;;;;21.85;9.60;;;;;;;13.88;100.00;100628.69;5105737;28;20103;-67
2024/03/15 12:45:58;;;;;;;23.23;12.65;;;;;;;13.89;100.00;100621.28;5109607;28;20044;-68
2024/03/15 12:48:47;;;;;;;11.52;5.47;;;;;;;13.89;100.00;100613.06;5107319;28;20039;-67
2024/03/15 12:51:37;;;;;;;18.60;8.73;;;;;;;13.90;100.00;100617.44;5101902;28;20067;-68
2024/03/15 12:54:25;;;;;;;20.42;10.18;;;;;;;13.95;100.00;100614.63;5105931;28;20060;-68
2024/03/15 12:57:13;;;;;;;18.35;7.95;;;;;;;13.94;100.00;100613.81;5113698;28;20128;-68
2024/03/15 13:00:12;;;;;;;75.57;38.92;;;;;;;13.99;100.00;100610.19;5091528;28;20046;-67